ヘルシンキ/ヴァンター の空港の天気 - METARとTAF

ヘルシンキ・ヴァンター国際空港 ( EFHK / HEL ) - フィンランド ヴァンター
飛行場実況気象(Metar)
観測時間03/09 08:20 EET (03/09 06:20 UTC)
風向・風速東 4m/s
視程2500m
天気現象弱い雪
少しの雲 雲底高度 240m
全天の8割程度の雲 雲底高度 300m
気温-6℃
湿度93%
気圧1015hPa
METAREFHK 090620Z 09008KT 2500 -SN FEW008 BKN010 M06/M07 Q1015 TEMPO 1400 SCT010
過去の天気等 Google飛行場航空写真 Wunderground天気予報

過去48時間のMETAR

飛行場予報(TAF)
発表時間: 3/09 07:33 EET (3/09 05:33 UTC)
予報対象時間: 9日8時 EET ~ 10日8時 EET
風向・風速東 4m/s
視程2000m
天気現象弱い雪
全天を覆う雲 雲底高度 610m
9日8時 EET ~ 9日17時 EET に一時的に
風向・風速東 9m/s 瞬間風速 14m/s
視程1200m
天気現象低い地吹雪 雪
全天を覆う雲 鉛直視程 270m
9日17時 EET ~ 9日19時 EET に徐々に
視程5000m
9日19時 EET ~ 9日21時 EET に徐々に
視程10km以上
10日0時 EET ~ 10日2時 EET に徐々に
風向・風速北東 6m/s
TAF EFHK 090533Z 0906/1006 10007KT 2000 -SN OVC020
TEMPO 0906/0915 08017G27KT 1200 DRSN SN VV009
BECMG 0915/0917 5000
BECMG 0917/0919 9999
BECMG 0922/0924 04011KT